createdAt,value
2018-07-05T00:00:00.844Z,50.48
2018-07-05T00:01:10.732Z,50.76
2018-07-05T00:02:20.913Z,50.57
2018-07-05T00:03:31.053Z,50.48
2018-07-05T00:04:41.213Z,50.76
2018-07-05T00:05:51.338Z,50.76
2018-07-05T00:07:01.496Z,50.38
2018-07-05T00:08:11.770Z,50.09
2018-07-05T00:09:21.985Z,49.7
2018-07-05T00:10:32.264Z,49.9
2018-07-05T00:11:42.444Z,50.38
2018-07-05T00:12:52.571Z,49.8
2018-07-05T00:14:02.757Z,49.9
2018-07-05T00:15:12.679Z,49.9
2018-07-05T00:16:22.912Z,49.8
2018-07-05T00:17:33.329Z,49.9
2018-07-05T00:18:43.459Z,49.9
2018-07-05T00:19:53.378Z,50.07
2018-07-05T00:21:03.148Z,49.58
2018-07-05T00:22:13.289Z,49.68
2018-07-05T00:23:23.277Z,49.8
2018-07-05T00:24:33.489Z,49.77
2018-07-05T00:25:43.379Z,49.97
2018-07-05T00:26:53.506Z,49.87
2018-07-05T00:28:03.687Z,50.35
2018-07-05T00:29:13.571Z,50.26
2018-07-05T00:30:23.350Z,50.62
2018-07-05T00:31:33.491Z,50.71
2018-07-05T00:32:43.655Z,50.65
2018-07-05T00:33:53.799Z,50.91
2018-07-05T00:35:03.965Z,51.2
2018-07-05T00:36:13.729Z,51.1
2018-07-05T00:37:23.876Z,51.78
2018-07-05T00:38:34.155Z,51.68
2018-07-05T00:39:44.362Z,51.68
2018-07-05T00:40:54.573Z,51.87
2018-07-05T00:42:04.886Z,51.78
2018-07-05T00:43:14.764Z,51.87
2018-07-05T00:44:25.005Z,52.17
2018-07-05T00:45:35.157Z,52.26
2018-07-05T00:46:45.275Z,52.55
2018-07-05T00:47:55.062Z,52.75
2018-07-05T00:49:05.298Z,52.84
2018-07-05T00:50:15.782Z,52.94
2018-07-05T00:51:25.955Z,52.75
2018-07-05T00:52:36.081Z,53.01
2018-07-05T00:53:46.217Z,53.2
2018-07-05T00:54:56.342Z,53.01
2018-07-05T00:56:06.469Z,53.01
2018-07-05T00:57:16.816Z,53.11
2018-07-05T00:58:27.056Z,53.59
2018-07-05T00:59:37.252Z,53.39
2018-07-05T01:00:47.600Z,53.2
2018-07-05T01:01:57.764Z,53.97
2018-07-05T01:03:07.948Z,53.88
2018-07-05T01:04:18.083Z,53.78
2018-07-05T01:05:28.270Z,54.07
2018-07-05T01:06:38.248Z,53.69
2018-07-05T01:07:48.375Z,53.88
2018-07-05T01:08:58.514Z,53.88
2018-07-05T01:10:08.672Z,54.27
2018-07-05T01:11:18.821Z,54.36
2018-07-05T01:12:28.977Z,54.55
2018-07-05T01:13:38.953Z,54.46
2018-07-05T01:14:49.130Z,54.46
2018-07-05T01:15:59.288Z,53.69
2018-07-05T01:17:09.546Z,54.46
2018-07-05T01:18:19.837Z,54.36
2018-07-05T01:19:29.696Z,54.46
2018-07-05T01:20:39.572Z,54.43
2018-07-05T01:21:49.769Z,54.43
2018-07-05T01:22:59.888Z,54.46
2018-07-05T01:24:10.021Z,54.24
2018-07-05T01:25:20.173Z,54.24
2018-07-05T01:26:30.325Z,54.33
2018-07-05T01:27:40.529Z,54.14
2018-07-05T01:28:50.708Z,54.72
2018-07-05T01:30:01.078Z,54.72
2018-07-05T01:31:11.273Z,55.01
2018-07-05T01:32:21.550Z,54.82
2018-07-05T01:33:31.723Z,54.91
2018-07-05T01:34:41.884Z,55.01
2018-07-05T01:35:52.042Z,54.82
2018-07-05T01:37:02.256Z,54.91
2018-07-05T01:38:12.426Z,54.82
2018-07-05T01:39:22.595Z,54.91
2018-07-05T01:40:32.718Z,55.01
2018-07-05T01:41:42.863Z,54.82
2018-07-05T01:42:53.021Z,55.2
2018-07-05T01:44:03.231Z,54.33
2018-07-05T01:45:13.363Z,54.62
2018-07-05T01:46:23.503Z,54.53
2018-07-05T01:47:33.655Z,54.53
2018-07-05T01:48:43.622Z,54.62
2018-07-05T01:49:53.860Z,55.1
2018-07-05T01:51:04.040Z,55.01
2018-07-05T01:52:14.207Z,54.62
2018-07-05T01:53:24.084Z,54.53
2018-07-05T01:54:34.275Z,54.62
2018-07-05T01:55:44.456Z,54.5
2018-07-05T01:56:54.693Z,55.01
2018-07-05T01:58:04.844Z,54.69
2018-07-05T01:59:14.622Z,54.79
2018-07-05T02:00:24.791Z,54.98
2018-07-05T02:01:35.080Z,54.98
2018-07-05T02:02:44.936Z,54.98
2018-07-05T02:03:55.071Z,54.88
2018-07-05T02:05:05.204Z,54.79
2018-07-05T02:06:15.334Z,54.6
2018-07-05T02:07:25.479Z,54.6
2018-07-05T02:08:35.461Z,54.98
2018-07-05T02:09:45.730Z,54.6
2018-07-05T02:10:55.621Z,55.18
2018-07-05T02:12:05.739Z,55.08
2018-07-05T02:13:15.888Z,55.08
2018-07-05T02:14:26.079Z,54.98
2018-07-05T02:15:36.409Z,55.36
2018-07-05T02:16:47.289Z,55.18
2018-07-05T02:17:57.188Z,55.36
2018-07-05T02:19:07.475Z,55.46
2018-07-05T02:20:17.727Z,56.04
2018-07-05T02:21:27.577Z,55.85
2018-07-05T02:22:37.723Z,55.85
2018-07-05T02:23:47.932Z,55.94
2018-07-05T02:24:57.677Z,55.94
2018-07-05T02:26:07.817Z,55.94
2018-07-05T02:27:18.013Z,55.94
2018-07-05T02:28:28.196Z,55.94
2018-07-05T02:29:38.405Z,56.24
2018-07-05T02:30:49.639Z,56.43
2018-07-05T02:31:59.887Z,56.52
2018-07-05T02:33:10.117Z,56.43
2018-07-05T02:34:19.678Z,56.62
2018-07-05T02:35:29.815Z,56.52
2018-07-05T02:36:39.924Z,55.76
2018-07-05T02:37:50.041Z,56.24
2018-07-05T02:39:00.261Z,55.85
2018-07-05T02:40:10.386Z,56.14
2018-07-05T02:41:20.576Z,56.04
2018-07-05T02:42:30.535Z,56.14
2018-07-05T02:43:40.684Z,55.85
2018-07-05T02:44:50.821Z,55.94
2018-07-05T02:46:01.080Z,55.76
2018-07-05T02:47:11.245Z,55.76
2018-07-05T02:48:21.373Z,55.66
2018-07-05T02:49:31.526Z,55.85
2018-07-05T02:50:41.673Z,55.94
2018-07-05T02:51:51.803Z,56.14
2018-07-05T02:53:01.985Z,56.04
2018-07-05T02:54:12.147Z,56.14
2018-07-05T02:55:22.343Z,56.52
2018-07-05T02:56:32.500Z,56.24
2018-07-05T02:57:42.716Z,56.14
2018-07-05T02:58:52.997Z,55.94
2018-07-05T03:00:03.279Z,55.94
2018-07-05T03:01:13.476Z,56.24
2018-07-05T03:02:23.754Z,56.52
2018-07-05T03:03:33.659Z,56.04
2018-07-05T03:04:43.837Z,55.94
2018-07-05T03:05:53.959Z,56.14
2018-07-05T03:07:04.096Z,55.56
2018-07-05T03:08:14.301Z,55.56
2018-07-05T03:09:24.606Z,55.18
2018-07-05T03:10:34.484Z,55.36
2018-07-05T03:11:44.602Z,54.98
2018-07-05T03:12:54.735Z,54.69
2018-07-05T03:14:04.883Z,54.6
2018-07-05T03:15:15.164Z,54.11
2018-07-05T03:16:25.039Z,54.31
2018-07-05T03:17:35.392Z,53.73
2018-07-05T03:18:45.541Z,53.83
2018-07-05T03:19:55.699Z,53.15
2018-07-05T03:21:05.819Z,53.83
2018-07-05T03:22:15.987Z,53.05
2018-07-05T03:23:26.208Z,53.05
2018-07-05T03:24:36.427Z,52.76
2018-07-05T03:25:46.624Z,52.47
2018-07-05T03:26:57.052Z,52.67
2018-07-05T03:28:07.180Z,52.09
2018-07-05T03:29:17.343Z,52.09
2018-07-05T03:30:27.488Z,51.61
2018-07-05T03:31:37.638Z,51.89
2018-07-05T03:32:48.011Z,51.89
2018-07-05T03:33:58.198Z,51.7
2018-07-05T03:35:08.103Z,51.8
2018-07-05T03:36:18.350Z,51.7
2018-07-05T03:37:28.515Z,51.7
2018-07-05T03:38:38.659Z,51.7
2018-07-05T03:39:48.793Z,51.8
2018-07-05T03:40:59.055Z,51.89
2018-07-05T03:42:09.315Z,51.99
2018-07-05T03:43:19.565Z,51.89
2018-07-05T03:44:29.797Z,51.8
2018-07-05T03:45:40.053Z,51.7
2018-07-05T03:46:50.203Z,51.99
2018-07-05T03:48:00.369Z,51.89
2018-07-05T03:49:10.555Z,51.61
2018-07-05T03:50:20.487Z,52.47
2018-07-05T03:51:30.659Z,51.99
2018-07-05T03:52:41.018Z,52.37
2018-07-05T03:53:50.797Z,52.19
2018-07-05T03:55:00.685Z,52.09
2018-07-05T03:56:10.855Z,51.89
2018-07-05T03:57:20.991Z,51.7
2018-07-05T03:58:31.136Z,51.8
2018-07-05T03:59:41.328Z,52.09
2018-07-05T04:00:51.496Z,51.89
2018-07-05T04:02:01.624Z,51.89
2018-07-05T04:03:11.766Z,51.99
2018-07-05T04:04:21.891Z,51.89
2018-07-05T04:05:32.121Z,51.7
2018-07-05T04:06:42.081Z,51.7
2018-07-05T04:07:51.873Z,51.89
2018-07-05T04:09:02.036Z,51.7
2018-07-05T04:10:12.163Z,51.8
2018-07-05T04:11:22.304Z,51.8
2018-07-05T04:12:32.489Z,51.51
2018-07-05T04:13:42.614Z,51.7
2018-07-05T04:14:52.584Z,51.51
2018-07-05T04:16:02.443Z,51.51
2018-07-05T04:17:12.073Z,51.51
2018-07-05T04:18:22.913Z,51.41
2018-07-05T04:20:04.667Z,51.41
2018-07-05T04:21:14.902Z,51.51
2018-07-05T04:22:25.055Z,51.51
2018-07-05T04:23:35.428Z,51.32
2018-07-05T04:24:45.626Z,51.22
2018-07-05T04:25:55.259Z,50.93
2018-07-05T04:27:05.127Z,51.25
2018-07-05T04:28:15.386Z,51.25
2018-07-05T04:29:25.579Z,51.03
2018-07-05T04:30:35.807Z,50.96
2018-07-05T04:31:45.421Z,51.15
2018-07-05T04:32:55.047Z,50.86
2018-07-05T04:34:04.978Z,50.67
2018-07-05T04:35:14.678Z,50.76
2018-07-05T04:36:24.595Z,50.38
2018-07-05T04:37:34.640Z,50.76
2018-07-05T04:38:44.332Z,51.15
2018-07-05T04:39:54.209Z,51.15
2018-07-05T04:41:04.240Z,51.34
2018-07-05T04:42:14.429Z,51.15
2018-07-05T04:43:24.600Z,50.93
2018-07-05T04:44:34.490Z,51.15
2018-07-05T04:45:44.371Z,51.25
2018-07-05T04:46:55.215Z,51.7
2018-07-05T04:48:05.174Z,51.34
2018-07-05T04:49:15.366Z,51.51
2018-07-05T04:50:25.603Z,51.63
2018-07-05T04:51:35.497Z,51.15
2018-07-05T04:52:45.374Z,51.44
2018-07-05T04:53:55.388Z,51.53
2018-07-05T04:55:05.281Z,51.25
2018-07-05T04:56:15.182Z,51.05
2018-07-05T04:57:25.057Z,51.15
2018-07-05T04:58:35.178Z,51.34
2018-07-05T04:59:44.833Z,51.34
2018-07-05T05:00:54.488Z,51.44
2018-07-05T05:02:04.188Z,51.15
2018-07-05T05:03:14.171Z,51.25
2018-07-05T05:04:24.340Z,51.05
2018-07-05T05:05:34.425Z,51.34
2018-07-05T05:06:44.633Z,51.25
2018-07-05T05:07:54.899Z,51.22
2018-07-05T05:09:04.793Z,51.12
2018-07-05T05:10:14.939Z,51.34
2018-07-05T05:11:25.186Z,51.34
2018-07-05T05:12:35.065Z,51.34
2018-07-05T05:13:45.044Z,51.53
2018-07-05T05:14:55.049Z,51.34
2018-07-05T05:16:05.530Z,51.82
2018-07-05T05:17:15.424Z,51.63
2018-07-05T05:18:25.582Z,51.53
2018-07-05T05:19:35.448Z,51.92
2018-07-05T05:20:45.600Z,52.11
2018-07-05T05:21:55.938Z,51.82
2018-07-05T05:23:06.084Z,51.73
2018-07-05T05:24:16.468Z,51.53
2018-07-05T05:25:26.185Z,51.34
2018-07-05T05:26:36.053Z,51.53
2018-07-05T05:27:45.952Z,51.25
2018-07-05T05:28:56.207Z,51.34
2018-07-05T05:30:06.404Z,51.44
2018-07-05T05:31:16.416Z,51.75
2018-07-05T05:32:26.535Z,51.95
2018-07-05T05:33:36.695Z,51.46
2018-07-05T05:34:46.830Z,51.56
2018-07-05T05:35:56.979Z,51.17
2018-07-05T05:37:06.878Z,51.27
2018-07-05T05:38:17.047Z,51.27
2018-07-05T05:39:27.193Z,51.29
2018-07-05T05:40:37.310Z,50.81
2018-07-05T05:41:47.519Z,50.81
2018-07-05T05:42:57.743Z,50.71
2018-07-05T05:44:08.060Z,50.62
2018-07-05T05:45:18.305Z,50.43
2018-07-05T05:46:28.466Z,50.43
2018-07-05T05:47:38.744Z,50.62
2018-07-05T05:48:49.232Z,49.97
2018-07-05T05:49:59.117Z,49.87
2018-07-05T05:51:09.330Z,49.97
2018-07-05T05:52:19.525Z,49.87
2018-07-05T05:53:29.681Z,49.58
2018-07-05T05:54:39.808Z,49.29
2018-07-05T05:55:49.929Z,49.58
2018-07-05T05:57:00.083Z,49.77
2018-07-05T05:58:10.200Z,49.49
2018-07-05T05:59:20.350Z,49.49
2018-07-05T06:00:30.212Z,49.39
2018-07-05T06:01:40.347Z,49.39
2018-07-05T06:02:50.652Z,49.58
2018-07-05T06:04:00.521Z,49.68
2018-07-05T06:05:10.643Z,49.39
2018-07-05T06:06:20.843Z,49.29
2018-07-05T06:07:31.005Z,49.49
2018-07-05T06:08:41.160Z,49.68
2018-07-05T06:09:50.863Z,49.77
2018-07-05T06:11:01.030Z,49.87
2018-07-05T06:12:11.209Z,49.97
2018-07-05T06:13:21.575Z,50.35
2018-07-05T06:14:31.489Z,50.35
2018-07-05T06:15:41.653Z,50.35
2018-07-05T06:16:51.807Z,50.26
2018-07-05T06:18:01.963Z,50.65
2018-07-05T06:19:12.142Z,50.93
2018-07-05T06:20:22.039Z,50.45
2018-07-05T06:21:31.942Z,50.74
2018-07-05T06:22:42.073Z,50.84
2018-07-05T06:23:51.950Z,50.93
2018-07-05T06:25:02.079Z,51.03
2018-07-05T06:26:12.230Z,50.84
2018-07-05T06:27:22.116Z,50.84
2018-07-05T06:28:32.247Z,50.74
2018-07-05T06:29:42.398Z,50.55
2018-07-05T06:30:52.519Z,50.74
2018-07-05T06:32:02.696Z,50.67
2018-07-05T06:33:12.922Z,50.57
2018-07-05T06:34:22.828Z,50.28
2018-07-05T06:35:32.975Z,50.18
2018-07-05T06:36:44.186Z,50.28
2018-07-05T06:37:54.367Z,50.57
2018-07-05T06:39:04.236Z,50.38
2018-07-05T06:40:14.399Z,50.48
2018-07-05T06:41:24.529Z,50.48
2018-07-05T06:42:34.707Z,50.48
2018-07-05T06:43:44.575Z,50.57
2018-07-05T06:44:54.753Z,50.57
2018-07-05T06:46:04.909Z,50.67
2018-07-05T06:47:15.135Z,50.48
2018-07-05T06:48:25.384Z,50.48
2018-07-05T06:49:35.383Z,50.48
2018-07-05T06:50:45.515Z,50.28
2018-07-05T06:51:55.654Z,49.7
2018-07-05T06:53:05.890Z,49.99
2018-07-05T06:54:16.248Z,50.02
2018-07-05T06:55:26.404Z,49.73
2018-07-05T06:56:36.285Z,49.44
2018-07-05T06:57:46.410Z,49.54
2018-07-05T06:58:56.562Z,49.24
2018-07-05T07:00:06.742Z,49.24
2018-07-05T07:01:16.628Z,49.07
2018-07-05T07:02:26.757Z,49.27
2018-07-05T07:03:36.910Z,49.37
2018-07-05T07:04:47.061Z,48.88
2018-07-05T07:05:57.190Z,48.97
2018-07-05T07:07:07.100Z,48.97
2018-07-05T07:08:17.279Z,48.69
2018-07-05T07:09:27.412Z,48.69
2018-07-05T07:10:37.650Z,48.01
2018-07-05T07:11:47.568Z,48.11
2018-07-05T07:12:57.190Z,47.64
2018-07-05T07:14:07.064Z,47.84
2018-07-05T07:15:17.083Z,47.36
2018-07-05T07:16:27.223Z,47.26
2018-07-05T07:17:37.463Z,47.55
2018-07-05T07:18:47.678Z,47.26
2018-07-05T07:19:57.911Z,46.77
2018-07-05T07:21:08.128Z,46.77
2018-07-05T07:22:18.349Z,47.38
2018-07-05T07:23:28.238Z,46.8
2018-07-05T07:24:38.470Z,47.09
2018-07-05T07:25:48.647Z,46.89
2018-07-05T07:26:58.788Z,46.51
2018-07-05T07:28:09.924Z,46.24
2018-07-05T07:29:20.138Z,46.62
2018-07-05T07:30:30.679Z,45.75
2018-07-05T07:31:40.520Z,45.65
2018-07-05T07:32:51.041Z,45.65
2018-07-05T07:34:01.247Z,45.65
2018-07-05T07:35:11.401Z,46.33
2018-07-05T07:36:21.629Z,46.53
2018-07-05T07:37:31.936Z,46.43
2018-07-05T07:38:42.639Z,46.43
2018-07-05T07:39:52.780Z,46.72
2018-07-05T07:41:02.925Z,46.92
2018-07-05T07:42:13.135Z,46.62
2018-07-05T07:43:23.362Z,46.62
2018-07-05T07:44:33.772Z,46.43
2018-07-05T07:45:43.974Z,46.62
2018-07-05T07:46:54.617Z,47.3
2018-07-05T07:48:04.783Z,47.3
2018-07-05T07:49:14.968Z,47.4
2018-07-05T07:50:25.110Z,47.11
2018-07-05T07:51:35.294Z,47.11
2018-07-05T07:52:45.192Z,47.4
2018-07-05T07:53:55.370Z,47.4
2018-07-05T07:55:05.600Z,47.3
2018-07-05T07:56:15.500Z,46.72
2018-07-05T07:57:25.862Z,46.62
2018-07-05T07:58:35.989Z,46.72
2018-07-05T07:59:46.107Z,46.43
2018-07-05T08:00:56.007Z,45.97
2018-07-05T08:02:06.185Z,45.75
2018-07-05T08:03:16.356Z,45.97
2018-07-05T08:04:26.503Z,45.95
2018-07-05T08:05:36.651Z,45.78
2018-07-05T08:06:46.778Z,45.87
2018-07-05T08:07:56.356Z,45.78
2018-07-05T08:09:06.806Z,45.78
2018-07-05T08:10:17.034Z,45.68
2018-07-05T08:11:27.245Z,45.58
2018-07-05T08:12:37.511Z,45.48
2018-07-05T08:13:47.869Z,45.58
2018-07-05T08:14:58.058Z,44.92
2018-07-05T08:16:08.238Z,44.83
2018-07-05T08:17:18.423Z,43.76
2018-07-05T08:18:28.578Z,43.37
2018-07-05T08:19:39.804Z,43.2
2018-07-05T08:20:50.049Z,43.27
2018-07-05T08:22:00.242Z,43.4
2018-07-05T08:23:10.507Z,43.01
2018-07-05T08:24:21.841Z,43.2
2018-07-05T08:25:31.719Z,43.2
2018-07-05T08:26:41.897Z,42.52
2018-07-05T08:27:52.094Z,43.1
2018-07-05T08:29:01.976Z,43.1
2018-07-05T08:30:12.326Z,42.74
2018-07-05T08:31:22.516Z,42.64
2018-07-05T08:32:32.956Z,42.35
2018-07-05T08:33:44.113Z,41.18
2018-07-05T08:34:54.253Z,41.47
2018-07-05T08:36:04.034Z,40.99
2018-07-05T08:37:14.218Z,41.2
2018-07-05T08:38:24.390Z,41.2
2018-07-05T08:39:34.551Z,41.2
2018-07-05T08:40:44.759Z,41.1
2018-07-05T08:41:54.674Z,41.01
2018-07-05T08:43:05.795Z,40.83
2018-07-05T08:44:15.929Z,40.64
2018-07-05T08:45:26.097Z,40.44
2018-07-05T08:46:36.003Z,40.08
2018-07-05T08:47:46.164Z,39.88
2018-07-05T08:48:56.318Z,39.7
2018-07-05T08:50:06.618Z,38.54
2018-07-05T08:51:16.935Z,37
2018-07-05T08:52:27.168Z,36.61
2018-07-05T08:53:37.326Z,36.43
2018-07-05T08:54:47.206Z,36.14
2018-07-05T08:55:58.984Z,35.94
2018-07-05T08:57:09.263Z,35.86
2018-07-05T08:58:19.531Z,34.59
2018-07-05T08:59:29.907Z,34.71
2018-07-05T09:00:40.076Z,34.24
2018-07-05T09:01:50.196Z,33.5
2018-07-05T09:03:00.403Z,33.12
2018-07-05T09:04:10.300Z,30.88
2018-07-05T09:05:20.726Z,31.57
2018-07-05T09:06:30.992Z,31.2
2018-07-05T09:07:41.152Z,31.11
2018-07-05T09:08:52.075Z,30.83
2018-07-05T09:10:02.236Z,29.88
2018-07-05T09:11:12.470Z,30
2018-07-05T09:12:22.355Z,29.43
2018-07-05T09:13:32.490Z,28.54
2018-07-05T09:14:43.625Z,27.28
2018-07-05T09:15:53.814Z,26.51
2018-07-05T09:17:04.054Z,26.8
2018-07-05T09:18:14.217Z,26.62
2018-07-05T09:19:24.722Z,26.24
2018-07-05T09:20:35.129Z,25.95
2018-07-05T09:21:45.514Z,25.28
2018-07-05T09:22:55.631Z,25.38
2018-07-05T09:24:05.915Z,25.48
2018-07-05T09:25:16.081Z,25.08
2018-07-05T09:26:26.345Z,24.41
2018-07-05T09:27:36.671Z,24.99
2018-07-05T09:28:46.847Z,24.6
2018-07-05T09:29:57.011Z,24.62
2018-07-05T09:31:07.133Z,24.02
2018-07-05T09:32:17.630Z,23.84
2018-07-05T09:33:27.787Z,23.64
2018-07-05T09:34:39.170Z,22.46
2018-07-05T09:35:49.092Z,23.25
2018-07-05T09:36:58.910Z,22.95
2018-07-05T09:38:09.226Z,23.44
2018-07-05T09:39:19.384Z,23.05
2018-07-05T09:40:29.548Z,22.77
2018-07-05T09:41:40.135Z,22.56
2018-07-05T09:42:51.429Z,21.8
2018-07-05T09:44:01.625Z,22.09
2018-07-05T09:45:11.436Z,21.9
2018-07-05T09:46:21.590Z,22
2018-07-05T09:47:31.786Z,21.6
2018-07-05T09:48:41.707Z,21.8
2018-07-05T09:49:51.869Z,21.81
2018-07-05T09:51:04.565Z,21.7
2018-07-05T09:52:14.982Z,21.02
2018-07-05T09:53:24.888Z,20.94
2018-07-05T09:54:35.077Z,21.13
2018-07-05T09:55:45.285Z,21.23
2018-07-05T09:56:55.459Z,21.33
2018-07-05T09:58:05.790Z,21.42
2018-07-05T09:59:15.521Z,20.44
2018-07-05T10:00:25.785Z,21.13
2018-07-05T10:01:35.964Z,21.42
2018-07-05T10:02:47.203Z,20.83
2018-07-05T10:03:57.565Z,21.42
2018-07-05T10:05:07.584Z,21.71
2018-07-05T10:06:17.822Z,21.62
2018-07-05T10:07:28.112Z,21.33
2018-07-05T10:08:38.260Z,20.83
2018-07-05T10:09:48.141Z,20.34
2018-07-05T10:10:58.302Z,20.73
2018-07-05T10:12:08.445Z,20.83
2018-07-05T10:13:18.862Z,20.34
2018-07-05T10:14:30.181Z,21.23
2018-07-05T10:15:40.555Z,21.03
2018-07-05T10:16:50.461Z,20.34
2018-07-05T10:18:00.413Z,20.54
2018-07-05T10:19:10.710Z,20.44
2018-07-05T10:20:20.931Z,20.54
2018-07-05T10:21:30.831Z,20.24
2018-07-05T10:22:40.992Z,20.04
2018-07-05T10:23:51.179Z,20.14
2018-07-05T10:25:01.071Z,19.85
2018-07-05T10:26:11.223Z,19.85
2018-07-05T10:27:21.496Z,20.03
2018-07-05T10:28:31.647Z,19.93
2018-07-05T10:29:41.457Z,19.85
2018-07-05T10:30:51.641Z,19.95
2018-07-05T10:32:01.586Z,20.14
2018-07-05T10:33:11.665Z,19.85
2018-07-05T10:34:21.837Z,20.04
2018-07-05T10:35:31.999Z,19.95
2018-07-05T10:36:42.174Z,20.14
2018-07-05T10:37:52.562Z,20.03
2018-07-05T10:39:02.794Z,19.74
2018-07-05T10:40:12.971Z,20.14
2018-07-05T10:41:23.167Z,19.95
2018-07-05T10:42:33.339Z,19.45
2018-07-05T10:43:43.500Z,19.55
2018-07-05T10:44:53.914Z,20.04
2018-07-05T10:46:03.981Z,20.14
2018-07-05T10:47:14.366Z,20.24
2018-07-05T10:48:24.214Z,20.14
2018-07-05T10:49:34.408Z,19.95
2018-07-05T10:50:44.601Z,20.14
2018-07-05T10:51:54.596Z,20.34
2018-07-05T10:53:04.792Z,19.65
2018-07-05T10:54:15.094Z,19.85
2018-07-05T10:55:25.400Z,20.24
2018-07-05T10:56:35.670Z,20.23
2018-07-05T10:57:45.815Z,19.95
2018-07-05T10:58:56.011Z,20.14
2018-07-05T11:00:06.108Z,19.95
2018-07-05T11:01:16.435Z,20.14
2018-07-05T11:02:26.615Z,20.73
2018-07-05T11:03:36.814Z,19.95
2018-07-05T11:04:46.987Z,20.14
2018-07-05T11:05:56.949Z,19.95
2018-07-05T11:07:07.109Z,20.24
2018-07-05T11:08:17.377Z,20.14
2018-07-05T11:09:27.542Z,20.24
2018-07-05T11:10:37.724Z,19.85
2018-07-05T11:11:47.915Z,19.95
2018-07-05T11:12:58.282Z,19.26
2018-07-05T11:14:09.431Z,19.26
2018-07-05T11:15:19.565Z,19.35
2018-07-05T11:16:29.752Z,19.95
2018-07-05T11:17:40.018Z,20.04
2018-07-05T11:18:50.221Z,19.35
2018-07-05T11:20:00.480Z,19.55
2018-07-05T11:21:10.639Z,19.65
2018-07-05T11:22:20.850Z,19.65
2018-07-05T11:23:31.052Z,19.65
2018-07-05T11:24:41.257Z,19.84
2018-07-05T11:25:50.955Z,19.93
2018-07-05T11:27:01.401Z,19.84
2018-07-05T11:28:11.477Z,20.03
2018-07-05T11:29:22.622Z,19.84
2018-07-05T11:30:32.542Z,20.03
2018-07-05T11:31:42.690Z,20.42
2018-07-05T11:32:52.849Z,20.32
2018-07-05T11:34:03.011Z,20.23
2018-07-05T11:35:13.191Z,20.14
2018-07-05T11:36:23.442Z,20.23
2018-07-05T11:37:33.811Z,20.23
2018-07-05T11:38:43.778Z,20.03
2018-07-05T11:39:54.198Z,20.22
2018-07-05T11:41:04.726Z,20.62
2018-07-05T11:42:15.005Z,20.52
2018-07-05T11:43:25.368Z,20.32
2018-07-05T11:44:35.577Z,20.23
2018-07-05T11:45:45.744Z,20.33
2018-07-05T11:46:56.378Z,20.33
2018-07-05T11:48:06.568Z,19.93
2018-07-05T11:49:16.783Z,20.73
2018-07-05T11:50:26.984Z,20.53
2018-07-05T11:51:37.146Z,20.91
2018-07-05T11:52:47.107Z,21.01
2018-07-05T11:53:56.761Z,20.91
2018-07-05T11:55:06.674Z,20.81
2018-07-05T11:56:16.831Z,20.72
2018-07-05T11:57:27.016Z,20.81
2018-07-05T11:58:37.303Z,20.91
2018-07-05T11:59:47.660Z,21.01
2018-07-05T12:00:57.660Z,20.91
2018-07-05T12:02:07.720Z,21.11
2018-07-05T12:03:18.084Z,21.39
2018-07-05T12:04:28.255Z,21.39
2018-07-05T12:05:38.756Z,21.39
2018-07-05T12:06:48.608Z,21.29
2018-07-05T12:07:58.896Z,21.39
2018-07-05T12:09:09.218Z,21.39
2018-07-05T12:10:19.537Z,21.39
2018-07-05T12:11:29.893Z,21.67
2018-07-05T12:12:40.051Z,21.37
2018-07-05T12:13:50.254Z,21.68
2018-07-05T12:15:00.415Z,21.77
2018-07-05T12:16:10.332Z,21.77
2018-07-05T12:17:20.504Z,21.78
2018-07-05T12:18:31.811Z,22.08
2018-07-05T12:19:42.004Z,21.68
2018-07-05T12:20:52.280Z,21.78
2018-07-05T12:22:02.609Z,21.69
2018-07-05T12:23:12.839Z,21.69
2018-07-05T12:24:23.176Z,21.79
2018-07-05T12:25:33.489Z,21.98
2018-07-05T12:26:43.718Z,22.37
2018-07-05T12:27:53.897Z,22.56
2018-07-05T12:29:04.559Z,22.85
2018-07-05T12:30:15.121Z,23.14
2018-07-05T12:31:25.341Z,23.03
2018-07-05T12:32:35.581Z,23.61
2018-07-05T12:33:45.869Z,23.61
2018-07-05T12:34:55.778Z,24
2018-07-05T12:36:05.936Z,24.1
2018-07-05T12:37:16.131Z,23.8
2018-07-05T12:38:26.025Z,24.77
2018-07-05T12:39:36.301Z,24.97
2018-07-05T12:40:46.277Z,24.96
2018-07-05T12:41:56.222Z,24.96
2018-07-05T12:43:06.451Z,25.26
2018-07-05T12:44:16.690Z,25.26
2018-07-05T12:45:27.040Z,25.26
2018-07-05T12:46:37.285Z,25.26
2018-07-05T12:47:47.469Z,25.34
2018-07-05T12:48:57.737Z,25.34
2018-07-05T12:50:07.949Z,25.44
2018-07-05T12:51:18.238Z,25.54
2018-07-05T12:52:28.414Z,25.83
2018-07-05T12:53:38.563Z,25.93
2018-07-05T12:54:48.771Z,25.92
2018-07-05T12:55:58.943Z,26.01
2018-07-05T12:57:08.883Z,26.01
2018-07-05T12:58:19.299Z,25.92
2018-07-05T12:59:29.757Z,26.01
2018-07-05T13:00:39.924Z,26.31
2018-07-05T13:01:50.175Z,26.11
2018-07-05T13:03:00.386Z,26.41
2018-07-05T13:04:10.590Z,26.51
2018-07-05T13:05:21.335Z,26.5
2018-07-05T13:06:31.252Z,26.5
2018-07-05T13:07:41.407Z,26.4
2018-07-05T13:08:51.775Z,26.89
2018-07-05T13:10:02.000Z,26.48
2018-07-05T13:11:12.168Z,26.48
2018-07-05T13:12:22.323Z,26.97
2018-07-05T13:13:32.480Z,26.78
2018-07-05T13:14:42.671Z,26.78
2018-07-05T13:15:52.852Z,26.78
2018-07-05T13:17:03.023Z,27.26
2018-07-05T13:18:13.365Z,26.98
2018-07-05T13:19:23.862Z,27.36
2018-07-05T13:20:33.807Z,27.18
2018-07-05T13:21:43.970Z,27.67
2018-07-05T13:22:55.185Z,27.28
2018-07-05T13:24:05.394Z,26.69
2018-07-05T13:25:15.294Z,26.4
2018-07-05T13:26:25.517Z,26.69
2018-07-05T13:27:36.060Z,26.58
2018-07-05T13:28:46.228Z,26.68
2018-07-05T13:29:56.487Z,27.07
2018-07-05T13:31:06.676Z,27.26
2018-07-05T13:32:16.829Z,27.36
2018-07-05T13:33:27.049Z,27.84
2018-07-05T13:34:37.312Z,27.95
2018-07-05T13:35:47.640Z,27.36
2018-07-05T13:36:57.848Z,26.97
2018-07-05T13:38:08.071Z,26.97
2018-07-05T13:39:17.993Z,27.25
2018-07-05T13:40:28.377Z,27.35
2018-07-05T13:41:38.571Z,27.35
2018-07-05T13:42:48.821Z,28.03
2018-07-05T13:43:59.090Z,27.25
2018-07-05T13:45:09.061Z,27.35
2018-07-05T13:46:19.304Z,27.94
2018-07-05T13:47:29.211Z,27.84
2018-07-05T13:48:39.165Z,28.03
2018-07-05T13:49:49.346Z,27.84
2018-07-05T13:50:59.515Z,28.23
2018-07-05T13:52:09.764Z,28.03
2018-07-05T13:53:19.715Z,28.33
2018-07-05T13:54:29.877Z,28.03
2018-07-05T13:55:40.112Z,28.63
2018-07-05T13:56:50.330Z,28.03
2018-07-05T13:58:00.486Z,28.43
2018-07-05T13:59:10.698Z,28.23
2018-07-05T14:00:20.905Z,28.03
2018-07-05T14:01:30.575Z,28.51
2018-07-05T14:02:40.779Z,28.91
2018-07-05T14:03:50.601Z,28.51
2018-07-05T14:05:01.001Z,28.61
2018-07-05T14:06:11.162Z,29
2018-07-05T14:07:21.337Z,28.91
2018-07-05T14:08:31.536Z,28.61
2018-07-05T14:09:41.685Z,29
2018-07-05T14:10:51.885Z,28.71
2018-07-05T14:12:02.257Z,28.41
2018-07-05T14:13:12.459Z,28.81
2018-07-05T14:14:22.621Z,28.22
2018-07-05T14:15:32.556Z,28.61
2018-07-05T14:16:42.822Z,28.92
2018-07-05T14:17:52.783Z,28.91
2018-07-05T14:19:03.045Z,28.71
2018-07-05T14:20:13.203Z,28.31
2018-07-05T14:21:23.345Z,28.51
2018-07-05T14:22:33.253Z,28.31
2018-07-05T14:23:43.227Z,28.41
2018-07-05T14:24:54.457Z,28.81
2018-07-05T14:26:04.896Z,28.89
2018-07-05T14:27:15.063Z,28.5
2018-07-05T14:28:25.260Z,28.89
2018-07-05T14:29:35.627Z,29.08
2018-07-05T14:30:45.561Z,29.27
2018-07-05T14:31:55.776Z,29.66
2018-07-05T14:33:05.693Z,30.04
2018-07-05T14:34:15.863Z,30.13
2018-07-05T14:35:27.035Z,30.04
2018-07-05T14:36:37.080Z,30.33
2018-07-05T14:37:47.363Z,30.23
2018-07-05T14:38:57.547Z,30.13
2018-07-05T14:40:07.459Z,30.12
2018-07-05T14:41:17.100Z,30.22
2018-07-05T14:42:27.287Z,29.84
2018-07-05T14:43:37.568Z,30.23
2018-07-05T14:44:47.843Z,29.94
2018-07-05T14:45:58.023Z,29.64
2018-07-05T14:47:08.223Z,29.45
2018-07-05T14:48:19.448Z,29.94
2018-07-05T14:49:29.656Z,30.43
2018-07-05T14:50:39.922Z,30.13
2018-07-05T14:51:50.136Z,29.84
2018-07-05T14:53:00.349Z,29.84
2018-07-05T14:54:10.536Z,29.94
2018-07-05T14:55:20.804Z,30.13
2018-07-05T14:56:30.980Z,29.84
2018-07-05T14:57:41.185Z,29.75
2018-07-05T14:58:51.433Z,29.84
2018-07-05T15:00:01.360Z,29.56
2018-07-05T15:01:11.516Z,29.55
2018-07-05T15:02:21.714Z,29.94
2018-07-05T15:03:31.654Z,29.16
2018-07-05T15:04:41.989Z,29.66
2018-07-05T15:05:52.283Z,29.64
2018-07-05T15:07:02.424Z,29.36